Time;durP1;ratioP1;P1;durP2;ratioP2;P2;SDS_P1;SDS_P2;PMS_P1;PMS_P2;Temp;Humidity;BMP_temperature;BMP_pressure;BME280_temperature;BME280_humidity;BME280_pressure;Samples;Min_cycle;Max_cycle;Signal;HPM_P1;HPM_P2
2023/06/09 00:01:02;;;;;;;2.87;2.63;;;;;;;;;;6275893;22;20224;-83
2023/06/09 00:03:31;;;;;;;2.93;2.73;;;;;;;;;;6275689;22;20178;-83
2023/06/09 00:06:01;;;;;;;9.77;3.57;;;;;;;;;;6276426;22;20183;-83
2023/06/09 00:08:32;;;;;;;4.27;3.33;;;;;;;;;;6276197;22;20235;-83
2023/06/09 00:11:00;;;;;;;4.33;3.37;;;;;;;;;;6275826;22;20187;-83
2023/06/09 00:13:30;;;;;;;3.47;2.77;;;;;;;;;;6275815;22;20232;-83
2023/06/09 00:15:58;;;;;;;3.47;2.53;;;;;;;;;;6276241;22;20173;-83
2023/06/09 00:18:27;;;;;;;2.23;2.03;;;;;;;;;;6275565;22;20201;-83
2023/06/09 00:20:56;;;;;;;3.67;2.90;;;;;;;;;;6276114;22;20204;-83
2023/06/09 00:23:28;;;;;;;3.17;2.53;;;;;;;;;;6275386;22;20171;-83
2023/06/09 00:25:57;;;;;;;10.27;2.83;;;;;;;;;;6275546;22;20173;-83
2023/06/09 00:28:25;;;;;;;7.60;3.10;;;;;;;;;;6275541;22;20199;-83
2023/06/09 00:30:55;;;;;;;8.37;4.23;;;;;;;;;;6275974;22;20199;-83
2023/06/09 00:33:23;;;;;;;5.73;2.53;;;;;;;;;;6275352;22;20194;-84
2023/06/09 00:35:52;;;;;;;3.23;2.93;;;;;;;;;;6275751;22;20239;-83
2023/06/09 00:38:20;;;;;;;6.77;3.53;;;;;;;;;;6276029;22;20177;-83
2023/06/09 00:40:50;;;;;;;10.83;3.97;;;;;;;;;;6275289;22;20206;-83
2023/06/09 00:43:19;;;;;;;3.33;2.67;;;;;;;;;;6275824;22;20177;-83
2023/06/09 00:45:47;;;;;;;4.57;3.83;;;;;;;;;;6275612;22;20185;-83
2023/06/09 00:48:17;;;;;;;6.47;2.60;;;;;;;;;;6275955;22;20184;-83
2023/06/09 00:50:46;;;;;;;2.27;2.13;;;;;;;;;;6275668;22;20176;-83
2023/06/09 00:53:15;;;;;;;3.27;2.27;;;;;;;;;;6274878;22;20175;-83
2023/06/09 00:55:43;;;;;;;4.30;3.07;;;;;;;;;;6276145;22;20177;-83
2023/06/09 00:58:12;;;;;;;8.70;3.47;;;;;;;;;;6275634;22;20244;-83
2023/06/09 01:00:40;;;;;;;5.03;2.47;;;;;;;;;;6275259;22;20273;-84
2023/06/09 01:03:09;;;;;;;6.03;2.60;;;;;;;;;;6276181;22;20178;-84
2023/06/09 01:05:44;;;;;;;2.57;1.97;;;;;;;;;;6275814;22;20178;-83
2023/06/09 01:08:17;;;;;;;8.13;3.47;;;;;;;;;;6275638;22;20201;-83
2023/06/09 01:10:51;;;;;;;6.53;3.23;;;;;;;;;;6275733;22;20206;-83
2023/06/09 01:13:26;;;;;;;8.20;4.03;;;;;;;;;;6276181;22;20174;-83
2023/06/09 01:15:56;;;;;;;7.57;2.80;;;;;;;;;;6276050;22;20176;-83
2023/06/09 01:18:26;;;;;;;9.20;3.43;;;;;;;;;;6274811;22;20169;-84
2023/06/09 01:21:01;;;;;;;4.00;2.77;;;;;;;;;;6275723;22;20185;-83
2023/06/09 01:23:35;;;;;;;5.17;2.77;;;;;;;;;;6275165;22;20184;-83
2023/06/09 01:26:06;;;;;;;11.60;3.70;;;;;;;;;;6274973;22;20171;-83
2023/06/09 01:28:38;;;;;;;7.77;4.13;;;;;;;;;;6275464;22;20217;-83
2023/06/09 01:31:08;;;;;;;4.10;2.63;;;;;;;;;;6275587;22;20198;-83
2023/06/09 01:33:38;;;;;;;7.17;3.10;;;;;;;;;;6275335;22;20204;-83
2023/06/09 01:36:06;;;;;;;8.50;2.97;;;;;;;;;;6275026;22;20174;-83
2023/06/09 01:38:35;;;;;;;7.73;4.20;;;;;;;;;;6275771;22;20177;-83
2023/06/09 01:41:03;;;;;;;3.20;2.70;;;;;;;;;;6275274;22;20195;-83
2023/06/09 01:43:33;;;;;;;9.33;3.20;;;;;;;;;;6274609;22;20188;-85
2023/06/09 01:46:01;;;;;;;4.47;3.40;;;;;;;;;;6274938;22;20182;-83
2023/06/09 01:48:33;;;;;;;7.90;6.33;;;;;;;;;;6275379;22;20252;-83
2023/06/09 01:51:03;;;;;;;2.83;1.60;;;;;;;;;;6274479;22;20197;-83
2023/06/09 01:53:34;;;;;;;7.63;2.27;;;;;;;;;;6274945;22;20171;-83
2023/06/09 01:56:06;;;;;;;5.63;3.23;;;;;;;;;;6275543;22;20177;-83
2023/06/09 01:58:40;;;;;;;6.83;3.63;;;;;;;;;;6275210;22;20185;-83
2023/06/09 02:01:08;;;;;;;5.80;2.73;;;;;;;;;;6274412;22;20185;-83
2023/06/09 02:03:39;;;;;;;3.87;3.00;;;;;;;;;;6274795;22;20169;-83
2023/06/09 02:06:10;;;;;;;5.67;2.73;;;;;;;;;;6275783;22;20166;-83
2023/06/09 02:08:39;;;;;;;3.53;2.90;;;;;;;;;;6274856;22;20180;-84
2023/06/09 02:11:10;;;;;;;7.10;3.27;;;;;;;;;;6275159;22;20177;-83
2023/06/09 02:13:39;;;;;;;3.17;2.77;;;;;;;;;;6274953;22;20184;-83
2023/06/09 02:16:08;;;;;;;6.50;3.87;;;;;;;;;;6274552;22;20182;-83
2023/06/09 02:18:37;;;;;;;3.43;2.20;;;;;;;;;;6274864;22;20235;-83
2023/06/09 02:21:05;;;;;;;7.00;2.80;;;;;;;;;;6274719;22;20169;-83
2023/06/09 02:23:34;;;;;;;2.33;2.13;;;;;;;;;;6275124;22;20171;-83
2023/06/09 02:26:02;;;;;;;2.13;1.77;;;;;;;;;;6273981;22;20175;-83
2023/06/09 02:28:31;;;;;;;3.57;2.83;;;;;;;;;;6275062;22;20249;-83
2023/06/09 02:31:01;;;;;;;4.30;2.33;;;;;;;;;;6274973;22;20202;-83
2023/06/09 02:33:29;;;;;;;2.93;2.30;;;;;;;;;;6274763;22;20174;-84
2023/06/09 02:35:59;;;;;;;4.50;2.50;;;;;;;;;;6274248;22;20177;-83
2023/06/09 02:38:27;;;;;;;3.00;2.67;;;;;;;;;;6275440;22;20174;-83
2023/06/09 02:40:56;;;;;;;6.03;2.57;;;;;;;;;;6274459;22;20239;-83
2023/06/09 02:43:24;;;;;;;6.73;4.00;;;;;;;;;;6274687;22;20201;-83
2023/06/09 02:45:53;;;;;;;3.73;3.23;;;;;;;;;;6274676;22;20174;-83
2023/06/09 02:48:23;;;;;;;6.93;3.10;;;;;;;;;;6274581;22;20171;-84
2023/06/09 02:50:51;;;;;;;4.57;2.57;;;;;;;;;;6274135;22;20201;-83
2023/06/09 02:53:20;;;;;;;17.93;3.43;;;;;;;;;;6274671;22;20202;-83
2023/06/09 02:55:49;;;;;;;3.80;2.60;;;;;;;;;;6274921;22;20180;-83
2023/06/09 02:58:17;;;;;;;1.57;1.47;;;;;;;;;;6274518;22;20178;-83
2023/06/09 03:00:46;;;;;;;5.30;3.00;;;;;;;;;;6273896;22;20169;-84
2023/06/09 03:03:17;;;;;;;5.37;2.70;;;;;;;;;;6274830;22;20186;-83
2023/06/09 03:05:49;;;;;;;7.00;5.20;;;;;;;;;;6274753;22;20265;-83
2023/06/09 03:08:18;;;;;;;10.03;4.27;;;;;;;;;;6273720;22;20174;-83
2023/06/09 03:10:46;;;;;;;2.43;2.10;;;;;;;;;;6274744;22;20182;-84
2023/06/09 03:13:14;;;;;;;6.53;3.17;;;;;;;;;;6274828;22;20169;-83
2023/06/09 03:15:44;;;;;;;3.43;2.37;;;;;;;;;;6274566;22;20185;-83
2023/06/09 03:18:13;;;;;;;1.40;1.33;;;;;;;;;;6274641;22;20200;-84
2023/06/09 03:20:42;;;;;;;3.93;3.17;;;;;;;;;;6274581;22;20175;-83
2023/06/09 03:23:12;;;;;;;2.17;1.97;;;;;;;;;;6274385;22;20194;-83
2023/06/09 03:25:40;;;;;;;2.23;1.90;;;;;;;;;;6274002;22;20231;-83
2023/06/09 03:28:09;;;;;;;3.70;2.67;;;;;;;;;;6274430;22;20273;-84
2023/06/09 03:30:37;;;;;;;7.50;3.77;;;;;;;;;;6274572;22;20205;-83
2023/06/09 03:33:06;;;;;;;9.57;4.03;;;;;;;;;;6273523;22;20173;-83
2023/06/09 03:35:35;;;;;;;9.77;4.73;;;;;;;;;;6274169;22;20207;-83
2023/06/09 03:38:03;;;;;;;9.67;2.77;;;;;;;;;;6274143;22;20172;-84
2023/06/09 03:40:34;;;;;;;4.33;2.70;;;;;;;;;;6274401;22;20183;-84
2023/06/09 03:43:02;;;;;;;10.73;3.90;;;;;;;;;;6274172;22;20202;-84
2023/06/09 03:45:31;;;;;;;0.70;0.70;;;;;;;;;;6274404;22;20185;-83
2023/06/09 03:47:59;;;;;;;2.53;1.50;;;;;;;;;;6274436;22;20180;-83
2023/06/09 03:50:28;;;;;;;1.87;1.77;;;;;;;;;;6274098;22;20174;-83
2023/06/09 03:52:56;;;;;;;9.27;3.37;;;;;;;;;;6274035;22;20174;-83
2023/06/09 03:55:25;;;;;;;11.80;5.03;;;;;;;;;;6274462;22;20190;-83
2023/06/09 03:57:55;;;;;;;7.07;5.10;;;;;;;;;;6274133;22;20178;-83
2023/06/09 04:00:23;;;;;;;4.20;3.03;;;;;;;;;;6275064;22;20201;-83
2023/06/09 04:02:52;;;;;;;6.87;4.90;;;;;;;;;;6275845;22;20194;-83
2023/06/09 04:05:21;;;;;;;3.30;2.33;;;;;;;;;;6276355;22;20178;-83
2023/06/09 04:07:52;;;;;;;7.53;3.80;;;;;;;;;;6275856;22;20249;-83
2023/06/09 04:10:20;;;;;;;3.37;2.67;;;;;;;;;;6276126;22;20209;-82
2023/06/09 04:12:49;;;;;;;3.40;3.20;;;;;;;;;;6276152;22;20171;-84
2023/06/09 04:15:19;;;;;;;3.77;2.67;;;;;;;;;;6275879;22;20178;-83
2023/06/09 04:17:48;;;;;;;4.80;3.43;;;;;;;;;;6276118;22;20183;-84
2023/06/09 04:20:22;;;;;;;1.63;1.53;;;;;;;;;;6276374;22;20171;-83
2023/06/09 04:22:51;;;;;;;3.77;3.03;;;;;;;;;;6275581;22;20192;-83
2023/06/09 04:25:25;;;;;;;4.33;2.33;;;;;;;;;;6275407;22;20202;-84
2023/06/09 04:27:54;;;;;;;5.30;3.60;;;;;;;;;;6275650;22;20187;-84
2023/06/09 04:30:26;;;;;;;8.60;3.87;;;;;;;;;;6275610;22;20203;-84
2023/06/09 04:32:54;;;;;;;2.77;1.90;;;;;;;;;;6275337;22;20225;-83
2023/06/09 04:35:23;;;;;;;2.97;2.70;;;;;;;;;;6276049;22;20266;-83
2023/06/09 04:37:52;;;;;;;6.00;4.17;;;;;;;;;;6275843;22;20180;-84
2023/06/09 04:40:22;;;;;;;3.37;2.87;;;;;;;;;;6275931;22;20179;-83
2023/06/09 04:42:52;;;;;;;12.73;1.77;;;;;;;;;;6275807;22;20182;-83
2023/06/09 04:45:27;;;;;;;4.30;2.50;;;;;;;;;;6276126;22;20183;-83
2023/06/09 04:47:59;;;;;;;10.60;3.70;;;;;;;;;;6275673;22;20254;-83
2023/06/09 04:50:30;;;;;;;7.87;3.83;;;;;;;;;;6275449;22;20170;-84
2023/06/09 04:52:59;;;;;;;4.63;2.17;;;;;;;;;;6275975;22;20174;-83
2023/06/09 04:55:29;;;;;;;4.87;2.93;;;;;;;;;;6276037;22;20175;-83
2023/06/09 04:57:58;;;;;;;10.03;4.67;;;;;;;;;;6275660;22;20180;-83
2023/06/09 05:00:27;;;;;;;3.13;2.10;;;;;;;;;;6276294;22;20190;-83
2023/06/09 05:02:57;;;;;;;5.40;3.20;;;;;;;;;;6275497;22;20211;-83
2023/06/09 05:05:28;;;;;;;4.80;2.67;;;;;;;;;;6275653;22;20253;-84
2023/06/09 05:07:56;;;;;;;5.17;2.63;;;;;;;;;;6275378;22;20180;-84
2023/06/09 05:10:25;;;;;;;3.97;2.87;;;;;;;;;;6275540;22;20170;-83
2023/06/09 05:12:56;;;;;;;6.33;5.13;;;;;;;;;;6275347;22;20233;-84
2023/06/09 05:15:27;;;;;;;13.10;4.70;;;;;;;;;;6275377;22;20192;-84
2023/06/09 05:17:57;;;;;;;5.93;3.17;;;;;;;;;;6267339;22;20218;-83
2023/06/09 05:20:27;;;;;;;6.63;3.07;;;;;;;;;;6276843;22;20187;-85
2023/06/09 05:22:56;;;;;;;2.77;1.67;;;;;;;;;;6276659;22;20282;-85
2023/06/09 05:25:27;;;;;;;6.30;2.97;;;;;;;;;;6274366;22;20180;-84
2023/06/09 05:27:56;;;;;;;2.57;2.37;;;;;;;;;;6274909;22;20278;-85
2023/06/09 05:30:24;;;;;;;4.77;2.03;;;;;;;;;;6274310;22;20207;-85
2023/06/09 05:32:53;;;;;;;8.83;3.30;;;;;;;;;;6273508;22;20175;-85
2023/06/09 05:35:21;;;;;;;11.73;2.40;;;;;;;;;;6274467;22;20175;-86
2023/06/09 05:37:52;;;;;;;7.77;4.63;;;;;;;;;;6273675;22;20199;-85
2023/06/09 05:40:20;;;;;;;6.37;4.30;;;;;;;;;;6274549;22;20183;-85
2023/06/09 05:42:49;;;;;;;3.23;2.03;;;;;;;;;;6274513;22;20250;-85
2023/06/09 05:45:18;;;;;;;6.43;4.27;;;;;;;;;;6273867;22;20180;-85
2023/06/09 05:47:48;;;;;;;5.33;3.30;;;;;;;;;;6274740;22;20184;-85
2023/06/09 05:50:17;;;;;;;2.93;2.73;;;;;;;;;;6274909;22;20176;-85
2023/06/09 05:52:45;;;;;;;5.07;3.93;;;;;;;;;;6274545;22;20182;-86
2023/06/09 05:55:16;;;;;;;5.77;2.50;;;;;;;;;;6274946;22;20177;-86
2023/06/09 05:57:45;;;;;;;10.27;3.47;;;;;;;;;;6274825;22;20180;-86
2023/06/09 06:00:14;;;;;;;7.07;4.10;;;;;;;;;;6276269;22;20169;-87
2023/06/09 06:02:44;;;;;;;5.83;3.53;;;;;;;;;;6275510;22;20180;-85
2023/06/09 06:05:13;;;;;;;8.63;4.13;;;;;;;;;;6274788;22;20218;-85
2023/06/09 06:07:42;;;;;;;9.87;5.23;;;;;;;;;;6275403;22;20187;-85
2023/06/09 06:10:11;;;;;;;5.87;3.17;;;;;;;;;;6275227;22;20184;-84
2023/06/09 06:12:41;;;;;;;7.87;4.17;;;;;;;;;;6275355;22;20177;-85
2023/06/09 06:15:12;;;;;;;4.50;3.57;;;;;;;;;;6275116;22;20168;-84
2023/06/09 06:17:43;;;;;;;8.60;5.83;;;;;;;;;;6275379;22;20180;-84
2023/06/09 06:20:13;;;;;;;6.97;3.23;;;;;;;;;;6274952;22;20172;-84
2023/06/09 06:22:43;;;;;;;11.03;3.63;;;;;;;;;;6274904;22;20185;-84
2023/06/09 06:25:13;;;;;;;8.73;3.33;;;;;;;;;;6275088;22;20192;-84
2023/06/09 06:27:43;;;;;;;5.37;3.10;;;;;;;;;;6275114;22;20207;-84
2023/06/09 06:30:16;;;;;;;10.77;5.97;;;;;;;;;;6275078;22;20180;-84
2023/06/09 06:32:51;;;;;;;8.10;4.13;;;;;;;;;;6274971;22;20175;-85
2023/06/09 06:35:26;;;;;;;2.90;2.47;;;;;;;;;;6274867;22;20176;-83
2023/06/09 06:37:55;;;;;;;3.23;2.83;;;;;;;;;;6274823;22;20183;-82
2023/06/09 06:40:24;;;;;;;3.87;3.03;;;;;;;;;;6274650;22;20181;-82
2023/06/09 06:42:54;;;;;;;7.63;4.50;;;;;;;;;;6275268;22;20177;-83
2023/06/09 06:45:23;;;;;;;9.03;4.13;;;;;;;;;;6274792;22;20199;-83
2023/06/09 06:47:53;;;;;;;7.23;4.10;;;;;;;;;;6274654;22;20230;-83
2023/06/09 06:50:21;;;;;;;8.90;4.83;;;;;;;;;;6274580;22;20205;-83
2023/06/09 06:52:53;;;;;;;10.47;5.37;;;;;;;;;;6274760;22;20228;-83
2023/06/09 06:55:22;;;;;;;4.17;3.77;;;;;;;;;;6274462;22;20165;-83
2023/06/09 06:57:52;;;;;;;5.37;4.43;;;;;;;;;;6274626;22;20173;-82
2023/06/09 07:00:22;;;;;;;4.30;3.33;;;;;;;;;;6275145;22;20173;-82
2023/06/09 07:02:53;;;;;;;8.83;6.37;;;;;;;;;;6275201;22;20173;-83
2023/06/09 07:05:22;;;;;;;7.33;5.17;;;;;;;;;;6274554;22;20201;-84
2023/06/09 07:07:51;;;;;;;9.83;5.43;;;;;;;;;;6274423;22;20179;-82
2023/06/09 07:10:20;;;;;;;3.20;2.90;;;;;;;;;;6274838;22;20244;-84
2023/06/09 07:12:48;;;;;;;8.53;5.20;;;;;;;;;;6274954;22;20191;-82
2023/06/09 07:15:17;;;;;;;6.23;5.63;;;;;;;;;;6274624;22;20169;-82
2023/06/09 07:17:47;;;;;;;5.57;4.30;;;;;;;;;;6274851;22;20173;-82
2023/06/09 07:20:16;;;;;;;11.90;4.30;;;;;;;;;;6275467;22;20173;-84
2023/06/09 07:22:50;;;;;;;9.90;5.47;;;;;;;;;;6274264;22;20172;-84
2023/06/09 07:25:20;;;;;;;5.27;3.53;;;;;;;;;;6274815;22;20197;-84
2023/06/09 07:27:49;;;;;;;6.60;4.20;;;;;;;;;;6274751;22;20255;-83
2023/06/09 07:30:19;;;;;;;3.07;2.80;;;;;;;;;;6274299;22;20173;-84
2023/06/09 07:32:49;;;;;;;8.63;4.77;;;;;;;;;;6274763;22;20184;-81
2023/06/09 07:35:19;;;;;;;8.53;4.30;;;;;;;;;;6275015;22;20166;-81
2023/06/09 07:37:48;;;;;;;5.10;3.13;;;;;;;;;;6276755;22;20259;-81
2023/06/09 07:40:23;;;;;;;6.40;4.70;;;;;;;;;;6276509;22;20237;-84
2023/06/09 07:42:56;;;;;;;21.30;5.90;;;;;;;;;;6272724;22;20207;-86
2023/06/09 07:45:25;;;;;;;11.20;6.17;;;;;;;;;;6274048;22;20197;-84
2023/06/09 07:47:55;;;;;;;8.93;4.87;;;;;;;;;;6275343;22;20200;-85
2023/06/09 07:50:24;;;;;;;4.67;3.23;;;;;;;;;;6277338;22;20230;-85
2023/06/09 07:52:53;;;;;;;2.63;2.07;;;;;;;;;;6277484;22;20264;-83
2023/06/09 07:55:23;;;;;;;7.70;4.53;;;;;;;;;;6274455;22;20196;-84
2023/06/09 07:57:52;;;;;;;3.17;2.87;;;;;;;;;;6277522;22;20200;-84
2023/06/09 08:00:20;;;;;;;3.90;2.47;;;;;;;;;;6273519;22;20269;-82
2023/06/09 08:02:50;;;;;;;5.10;2.73;;;;;;;;;;6273967;22;20173;-85
2023/06/09 08:05:21;;;;;;;12.80;7.53;;;;;;;;;;6272544;22;20189;-85
2023/06/09 08:07:51;;;;;;;14.90;7.23;;;;;;;;;;6274015;22;20240;-85
2023/06/09 08:10:19;;;;;;;9.10;7.30;;;;;;;;;;6273878;22;20196;-84
2023/06/09 08:12:50;;;;;;;4.30;3.50;;;;;;;;;;6273205;22;20226;-83
2023/06/09 08:15:19;;;;;;;10.17;4.90;;;;;;;;;;6273203;22;20169;-83
2023/06/09 08:17:48;;;;;;;4.53;3.20;;;;;;;;;;6272622;22;20174;-83
2023/06/09 08:20:17;;;;;;;7.97;4.43;;;;;;;;;;6272707;22;20211;-84
2023/06/09 08:22:47;;;;;;;9.03;5.40;;;;;;;;;;6273269;22;20197;-84
2023/06/09 08:25:16;;;;;;;7.27;5.33;;;;;;;;;;6272500;22;20195;-86
2023/06/09 08:27:57;;;;;;;9.17;5.07;;;;;;;;;;6273706;22;20243;-86
2023/06/09 08:30:29;;;;;;;4.80;2.10;;;;;;;;;;6274593;22;20241;-86
2023/06/09 08:33:01;;;;;;;5.60;2.37;;;;;;;;;;6276826;22;20204;-83
2023/06/09 08:35:35;;;;;;;8.63;4.57;;;;;;;;;;6276052;22;20169;-84
2023/06/09 08:38:06;;;;;;;13.07;4.63;;;;;;;;;;6276140;22;20172;-85
2023/06/09 08:40:35;;;;;;;2.10;2.00;;;;;;;;;;6276053;22;20224;-85
2023/06/09 08:43:06;;;;;;;9.57;4.73;;;;;;;;;;6276607;22;20171;-84
2023/06/09 08:45:35;;;;;;;12.60;6.47;;;;;;;;;;6276081;22;20227;-82
2023/06/09 08:48:05;;;;;;;8.37;5.80;;;;;;;;;;6274921;22;20178;-85
2023/06/09 08:50:41;;;;;;;11.17;6.90;;;;;;;;;;6272589;22;20197;-84
2023/06/09 08:53:11;;;;;;;8.73;5.10;;;;;;;;;;6274031;22;20184;-84
2023/06/09 08:55:41;;;;;;;11.20;4.60;;;;;;;;;;6273605;22;20222;-84
2023/06/09 08:58:11;;;;;;;13.03;6.73;;;;;;;;;;6274293;22;20166;-84
2023/06/09 09:00:40;;;;;;;5.87;4.90;;;;;;;;;;6271685;22;20172;-84
2023/06/09 09:03:10;;;;;;;9.13;5.03;;;;;;;;;;6271827;22;20260;-83
2023/06/09 09:05:40;;;;;;;9.83;6.50;;;;;;;;;;6271742;22;20226;-84
2023/06/09 09:08:09;;;;;;;15.27;7.13;;;;;;;;;;6273213;22;20169;-83
2023/06/09 09:10:41;;;;;;;5.50;4.00;;;;;;;;;;6271874;22;20284;-84
2023/06/09 09:13:19;;;;;;;9.37;6.57;;;;;;;;;;6273807;22;20193;-86
2023/06/09 09:15:49;;;;;;;6.27;2.97;;;;;;;;;;6273630;22;20164;-85
2023/06/09 09:18:19;;;;;;;11.83;5.23;;;;;;;;;;6273307;22;20210;-85
2023/06/09 09:20:49;;;;;;;7.43;4.30;;;;;;;;;;6273971;22;20175;-86
2023/06/09 09:23:19;;;;;;;8.30;6.23;;;;;;;;;;6274009;22;20200;-86
2023/06/09 09:25:55;;;;;;;12.40;7.77;;;;;;;;;;6271987;22;20196;-86
2023/06/09 09:28:23;;;;;;;9.73;6.97;;;;;;;;;;6271894;22;20201;-85
2023/06/09 09:30:55;;;;;;;13.57;4.17;;;;;;;;;;6272821;22;20206;-86
2023/06/09 09:33:29;;;;;;;3.17;2.83;;;;;;;;;;6272732;22;20177;-85
2023/06/09 09:35:58;;;;;;;8.90;6.60;;;;;;;;;;6272600;22;20166;-84
2023/06/09 09:38:32;;;;;;;10.23;5.60;;;;;;;;;;6271806;22;20203;-84
2023/06/09 09:41:02;;;;;;;8.53;4.70;;;;;;;;;;6273809;22;20174;-86
2023/06/09 09:43:33;;;;;;;6.53;5.23;;;;;;;;;;6274280;22;20222;-85
2023/06/09 09:46:04;;;;;;;3.97;2.57;;;;;;;;;;6274071;22;20286;-85
2023/06/09 09:48:37;;;;;;;8.07;4.93;;;;;;;;;;6273621;22;20170;-85
2023/06/09 09:51:08;;;;;;;6.47;5.00;;;;;;;;;;6272179;22;20176;-84
2023/06/09 09:53:39;;;;;;;5.50;3.87;;;;;;;;;;6272339;22;20177;-85
2023/06/09 09:56:09;;;;;;;9.80;6.03;;;;;;;;;;6273459;22;20178;-86
2023/06/09 09:58:38;;;;;;;8.97;5.43;;;;;;;;;;6273877;22;20191;-85
2023/06/09 10:01:09;;;;;;;3.40;2.90;;;;;;;;;;6272853;22;20169;-86
2023/06/09 10:03:41;;;;;;;7.53;4.47;;;;;;;;;;6272225;22;20180;-85
2023/06/09 10:06:10;;;;;;;3.43;2.93;;;;;;;;;;6272547;22;20196;-84
2023/06/09 10:08:42;;;;;;;17.33;6.77;;;;;;;;;;6271725;22;20181;-83
2023/06/09 10:11:13;;;;;;;6.43;4.53;;;;;;;;;;6273211;22;20173;-83
2023/06/09 10:13:42;;;;;;;8.10;4.83;;;;;;;;;;6272195;22;20172;-85
2023/06/09 10:16:11;;;;;;;9.50;6.30;;;;;;;;;;6272649;22;20225;-83
2023/06/09 10:18:41;;;;;;;7.63;4.03;;;;;;;;;;6273218;22;20172;-84
2023/06/09 10:21:15;;;;;;;5.47;4.87;;;;;;;;;;6273568;22;20180;-85
2023/06/09 10:23:46;;;;;;;4.03;2.97;;;;;;;;;;6272028;22;20177;-85
2023/06/09 10:26:25;;;;;;;10.93;5.40;;;;;;;;;;6271789;22;20181;-84
2023/06/09 10:28:56;;;;;;;8.80;4.60;;;;;;;;;;6271462;22;20196;-86
2023/06/09 10:31:26;;;;;;;8.47;5.90;;;;;;;;;;6271671;22;20209;-85
2023/06/09 10:34:03;;;;;;;9.73;5.90;;;;;;;;;;6273622;22;20203;-88
2023/06/09 10:36:40;;;;;;;6.07;5.43;;;;;;;;;;6276490;22;20172;-87
2023/06/09 10:39:18;;;;;;;9.20;6.73;;;;;;;;;;6277040;22;20176;-86
2023/06/09 10:41:57;;;;;;;3.53;3.23;;;;;;;;;;6273392;22;20170;-87
2023/06/09 10:44:34;;;;;;;5.60;4.33;;;;;;;;;;6272390;22;20249;-86
2023/06/09 10:47:03;;;;;;;3.63;2.63;;;;;;;;;;6274719;22;20186;-86
2023/06/09 10:49:42;;;;;;;6.57;5.47;;;;;;;;;;6272070;22;20175;-86
2023/06/09 10:52:26;;;;;;;7.30;4.43;;;;;;;;;;6273177;22;20300;-85
2023/06/09 10:55:09;;;;;;;10.57;7.27;;;;;;;;;;6250973;22;20181;-84
2023/06/09 10:57:41;;;;;;;3.67;3.37;;;;;;;;;;6271241;22;20171;-86
2023/06/09 11:00:14;;;;;;;15.67;6.17;;;;;;;;;;6273710;22;20170;-86
2023/06/09 11:02:43;;;;;;;4.00;3.37;;;;;;;;;;6269009;22;20171;-86
2023/06/09 11:05:12;;;;;;;16.33;5.37;;;;;;;;;;6271700;22;20199;-85
2023/06/09 11:07:43;;;;;;;5.37;3.97;;;;;;;;;;6271475;22;20184;-81
2023/06/09 11:10:37;;;;;;;11.37;5.57;;;;;;;;;;6271553;22;20218;-83
2023/06/09 11:13:21;;;;;;;3.80;3.23;;;;;;;;;;6274154;22;20235;-84
2023/06/09 11:16:00;;;;;;;9.27;6.07;;;;;;;;;;6274360;22;20216;-85
2023/06/09 11:18:30;;;;;;;7.20;4.70;;;;;;;;;;6274110;22;20259;-85
2023/06/09 11:21:27;;;;;;;8.53;5.77;;;;;;;;;;6274144;22;20182;-85
2023/06/09 11:23:57;;;;;;;4.97;3.23;;;;;;;;;;6274914;22;20206;-85
2023/06/09 11:26:28;;;;;;;12.17;6.60;;;;;;;;;;6273979;22;20226;-85
2023/06/09 11:29:00;;;;;;;4.17;3.53;;;;;;;;;;6276560;22;20235;-85
2023/06/09 11:31:31;;;;;;;6.50;4.60;;;;;;;;;;6276988;22;20203;-85
2023/06/09 11:34:02;;;;;;;6.23;3.73;;;;;;;;;;6277737;22;20234;-85
2023/06/09 11:36:32;;;;;;;7.00;4.17;;;;;;;;;;6277377;22;20173;-85
2023/06/09 11:39:04;;;;;;;4.70;3.80;;;;;;;;;;6277326;22;20180;-85
2023/06/09 11:41:34;;;;;;;5.20;4.70;;;;;;;;;;6277305;22;20222;-85
2023/06/09 11:44:08;;;;;;;7.47;6.40;;;;;;;;;;6276215;22;20236;-85
2023/06/09 11:46:38;;;;;;;13.67;7.43;;;;;;;;;;6275884;22;20200;-85
2023/06/09 11:49:08;;;;;;;11.23;5.07;;;;;;;;;;6276508;22;20204;-85
2023/06/09 11:51:55;;;;;;;6.93;6.03;;;;;;;;;;6276251;22;20180;-85
2023/06/09 11:54:42;;;;;;;5.50;4.13;;;;;;;;;;6274185;22;20176;-85
2023/06/09 11:57:13;;;;;;;5.83;4.27;;;;;;;;;;6276073;22;20169;-86
2023/06/09 11:59:45;;;;;;;5.53;4.93;;;;;;;;;;6274644;22;20171;-85
2023/06/09 12:02:30;;;;;;;4.30;3.63;;;;;;;;;;6275818;22;20382;-86
2023/06/09 12:05:01;;;;;;;6.13;5.53;;;;;;;;;;6275132;22;20169;-86
2023/06/09 12:07:36;;;;;;;9.37;5.83;;;;;;;;;;6275325;22;20276;-85
2023/06/09 12:10:06;;;;;;;4.40;3.97;;;;;;;;;;6275919;22;20216;-85
2023/06/09 12:12:47;;;;;;;7.50;5.80;;;;;;;;;;6275517;22;20174;-85
2023/06/09 12:15:17;;;;;;;6.43;3.73;;;;;;;;;;6274559;22;20264;-86
2023/06/09 12:17:48;;;;;;;6.03;4.20;;;;;;;;;;6276969;22;20166;-84
2023/06/09 12:20:23;;;;;;;4.97;4.53;;;;;;;;;;6276980;22;20176;-84
2023/06/09 12:22:54;;;;;;;8.03;4.80;;;;;;;;;;6277224;22;20168;-86
2023/06/09 12:25:28;;;;;;;3.33;3.03;;;;;;;;;;6276641;22;20257;-84
2023/06/09 12:27:58;;;;;;;5.93;4.67;;;;;;;;;;6275285;22;20287;-84
2023/06/09 12:30:44;;;;;;;6.17;4.00;;;;;;;;;;6274658;22;20172;-85
2023/06/09 12:33:16;;;;;;;8.47;6.70;;;;;;;;;;6275331;22;20271;-85
2023/06/09 12:35:49;;;;;;;8.13;5.00;;;;;;;;;;6273689;22;20201;-83
2023/06/09 12:38:19;;;;;;;8.20;6.10;;;;;;;;;;6273731;22;20201;-83
2023/06/09 12:40:50;;;;;;;7.23;5.23;;;;;;;;;;6274476;22;20256;-84
2023/06/09 12:43:23;;;;;;;8.07;5.60;;;;;;;;;;6273306;22;20190;-84
2023/06/09 12:45:58;;;;;;;6.37;5.03;;;;;;;;;;6273633;22;20252;-84
2023/06/09 12:48:28;;;;;;;4.17;3.23;;;;;;;;;;6273098;22;20286;-85
2023/06/09 12:50:58;;;;;;;6.57;4.17;;;;;;;;;;6274037;22;20231;-85
2023/06/09 12:53:29;;;;;;;7.97;3.73;;;;;;;;;;6273703;22;20179;-84
2023/06/09 12:55:58;;;;;;;6.10;4.50;;;;;;;;;;6273231;22;20202;-85
2023/06/09 12:58:26;;;;;;;5.73;4.17;;;;;;;;;;6273921;22;20251;-86
2023/06/09 13:00:56;;;;;;;6.00;5.17;;;;;;;;;;6276472;22;20173;-85
2023/06/09 13:03:25;;;;;;;4.17;3.60;;;;;;;;;;6274909;22;20196;-84
2023/06/09 13:05:56;;;;;;;5.43;4.23;;;;;;;;;;6275299;22;20202;-85
2023/06/09 13:08:25;;;;;;;5.90;5.30;;;;;;;;;;6273645;22;20234;-85
2023/06/09 13:10:54;;;;;;;4.27;3.87;;;;;;;;;;6273096;22;20171;-85
2023/06/09 13:13:23;;;;;;;8.97;4.67;;;;;;;;;;6273249;22;20172;-84
2023/06/09 13:15:52;;;;;;;4.63;3.90;;;;;;;;;;6273718;22;20181;-84
2023/06/09 13:18:21;;;;;;;7.17;5.13;;;;;;;;;;6273402;22;20244;-85
2023/06/09 13:20:50;;;;;;;9.13;7.40;;;;;;;;;;6273671;22;20172;-85
2023/06/09 13:23:20;;;;;;;5.73;5.23;;;;;;;;;;6273239;22;20197;-85
2023/06/09 13:25:52;;;;;;;6.27;4.33;;;;;;;;;;6273544;22;20232;-85
2023/06/09 13:28:25;;;;;;;6.80;2.83;;;;;;;;;;6274213;22;20203;-83
2023/06/09 13:30:59;;;;;;;6.70;5.07;;;;;;;;;;6273877;22;20214;-84
2023/06/09 13:33:33;;;;;;;4.17;3.27;;;;;;;;;;6273333;22;20174;-84
2023/06/09 13:36:02;;;;;;;4.77;4.27;;;;;;;;;;6274023;22;20171;-84
2023/06/09 13:38:37;;;;;;;5.73;4.47;;;;;;;;;;6273447;22;20167;-84
2023/06/09 13:41:09;;;;;;;4.83;3.83;;;;;;;;;;6273488;22;20182;-84
2023/06/09 13:43:46;;;;;;;7.67;4.40;;;;;;;;;;6275611;22;20207;-82
2023/06/09 13:46:18;;;;;;;4.73;3.53;;;;;;;;;;6275024;22;20170;-86
2023/06/09 13:49:04;;;;;;;6.60;3.43;;;;;;;;;;6274413;22;20191;-85
2023/06/09 13:51:46;;;;;;;4.87;4.37;;;;;;;;;;6266070;22;20188;-85
2023/06/09 13:54:19;;;;;;;7.07;5.07;;;;;;;;;;6273452;22;20175;-85
2023/06/09 13:56:51;;;;;;;6.77;3.40;;;;;;;;;;6273369;22;20175;-84
2023/06/09 13:59:20;;;;;;;6.73;3.37;;;;;;;;;;6273496;22;20225;-86
2023/06/09 14:01:53;;;;;;;3.60;2.27;;;;;;;;;;6273118;22;20184;-86
2023/06/09 14:04:24;;;;;;;3.70;3.40;;;;;;;;;;6273952;22;20180;-87
2023/06/09 14:06:53;;;;;;;5.20;4.80;;;;;;;;;;6272360;22;20210;-87
2023/06/09 14:09:26;;;;;;;5.20;4.07;;;;;;;;;;6273032;22;20223;-87
2023/06/09 14:11:54;;;;;;;4.60;3.80;;;;;;;;;;6273569;22;20271;-88
2023/06/09 14:14:28;;;;;;;2.87;2.57;;;;;;;;;;6273471;22;20179;-87
2023/06/09 14:16:57;;;;;;;5.77;4.50;;;;;;;;;;6273508;22;20188;-87
2023/06/09 14:19:30;;;;;;;5.07;4.57;;;;;;;;;;6273040;22;20168;-87
2023/06/09 14:22:04;;;;;;;7.13;4.50;;;;;;;;;;6273642;22;20183;-86
2023/06/09 14:24:35;;;;;;;5.90;4.60;;;;;;;;;;6272671;22;20172;-88
2023/06/09 14:27:04;;;;;;;3.67;3.33;;;;;;;;;;6272352;22;20204;-87
2023/06/09 14:29:32;;;;;;;4.57;4.17;;;;;;;;;;6273867;22;20193;-86
2023/06/09 14:32:01;;;;;;;4.73;4.33;;;;;;;;;;6273201;22;20208;-86
2023/06/09 14:34:30;;;;;;;3.57;2.80;;;;;;;;;;6272521;22;20190;-86
2023/06/09 14:36:59;;;;;;;12.47;4.10;;;;;;;;;;6273110;22;20180;-87
2023/06/09 14:39:27;;;;;;;6.67;5.13;;;;;;;;;;6273391;22;20184;-85
2023/06/09 14:41:57;;;;;;;12.27;4.20;;;;;;;;;;6274452;22;20177;-86
2023/06/09 14:44:26;;;;;;;5.93;4.63;;;;;;;;;;6272158;22;20234;-85
2023/06/09 14:46:55;;;;;;;5.30;4.83;;;;;;;;;;6273129;22;20173;-86
2023/06/09 14:49:24;;;;;;;3.90;3.03;;;;;;;;;;6273244;22;20197;-86
2023/06/09 14:51:52;;;;;;;8.33;4.20;;;;;;;;;;6273018;22;20173;-86
2023/06/09 14:54:21;;;;;;;4.10;3.50;;;;;;;;;;6274596;22;20173;-86
2023/06/09 14:56:49;;;;;;;3.90;3.57;;;;;;;;;;6272747;22;20200;-86
2023/06/09 14:59:19;;;;;;;4.23;3.63;;;;;;;;;;6272632;22;20244;-86
2023/06/09 15:01:48;;;;;;;4.70;3.97;;;;;;;;;;6273753;22;20176;-86